Time;durP1;ratioP1;P1;durP2;ratioP2;P2;SDS_P1;SDS_P2;PMS_P1;PMS_P2;Temp;Humidity;BMP_temperature;BMP_pressure;BME280_temperature;BME280_humidity;BME280_pressure;Samples;Min_cycle;Max_cycle;Signal;HPM_P1;HPM_P2
2022/04/21 00:00:34;;;;;;;1.10;1.10;;;;;;;9.63;55.83;98104.56;4093263;29;20214;-55
2022/04/21 00:02:36;;;;;;;1.00;1.00;;;;;;;9.59;56.09;98108.88;4116488;28;20213;-54
2022/04/21 00:04:37;;;;;;;1.65;1.55;;;;;;;9.54;55.76;98100.63;4086751;29;20258;-53
2022/04/21 00:06:39;;;;;;;1.27;1.17;;;;;;;9.53;56.22;98101.69;4087525;28;20211;-54
2022/04/21 00:08:41;;;;;;;1.00;1.00;;;;;;;9.51;56.03;98096.50;4093670;28;20207;-53
2022/04/21 00:10:44;;;;;;;1.10;1.10;;;;;;;9.50;56.35;98102.22;4123910;28;20214;-54
2022/04/21 00:12:46;;;;;;;1.25;1.15;;;;;;;9.45;56.11;98104.88;4080437;29;20220;-54
2022/04/21 00:14:47;;;;;;;1.30;1.20;;;;;;;9.40;56.28;98107.53;4091333;29;20246;-53
2022/04/21 00:16:49;;;;;;;1.13;1.02;;;;;;;9.34;55.94;98103.09;4104325;28;20207;-54
2022/04/21 00:18:51;;;;;;;1.10;1.10;;;;;;;9.25;55.89;98099.13;4097103;29;20234;-55
2022/04/21 00:20:52;;;;;;;1.00;0.95;;;;;;;9.16;56.01;98092.47;4096194;29;20234;-56
2022/04/21 00:25:14;;;;;;;1.17;1.17;;;;;;;8.97;56.02;98093.81;4091065;28;20250;-54
2022/04/21 00:27:17;;;;;;;1.02;1.02;;;;;;;8.90;55.98;98083.06;4103840;28;20218;-55
2022/04/21 00:29:18;;;;;;;1.38;1.27;;;;;;;8.86;56.27;98094.72;4088862;29;20205;-53
2022/04/21 00:31:20;;;;;;;1.05;1.00;;;;;;;8.85;56.07;98090.34;4095266;28;20691;-55
2022/04/21 00:33:22;;;;;;;1.10;1.10;;;;;;;8.81;56.09;98087.28;4089691;29;20226;-54
2022/04/21 00:35:24;;;;;;;1.40;1.30;;;;;;;8.79;56.44;98085.88;4093231;29;20333;-54
2022/04/21 00:37:26;;;;;;;1.20;1.10;;;;;;;8.68;56.58;98084.09;4120923;28;20241;-54
2022/04/21 00:39:28;;;;;;;1.58;1.48;;;;;;;8.62;57.19;98079.63;4091550;29;20235;-54
2022/04/21 00:41:30;;;;;;;1.23;1.10;;;;;;;8.53;57.08;98081.94;4089372;28;20586;-55
2022/04/21 00:43:33;;;;;;;1.33;1.33;;;;;;;8.47;57.27;98076.63;4102933;28;20207;-55
2022/04/21 00:45:35;;;;;;;1.15;1.15;;;;;;;8.39;57.63;98074.31;4087722;29;20317;-55
2022/04/21 00:47:40;;;;;;;1.20;1.10;;;;;;;8.38;58.22;98075.41;4103966;28;20310;-55
2022/04/21 00:49:43;;;;;;;1.25;1.15;;;;;;;8.33;57.20;98064.41;4087211;29;20313;-54
2022/04/21 00:51:45;;;;;;;1.52;1.42;;;;;;;8.28;58.20;98073.31;4121242;28;20217;-55
2022/04/21 00:53:47;;;;;;;1.23;1.23;;;;;;;8.28;57.94;98062.41;4119229;28;20759;-54
2022/04/21 00:55:49;;;;;;;1.67;1.58;;;;;;;8.28;58.36;98056.16;4091249;29;20571;-55
2022/04/21 00:57:52;;;;;;;1.45;1.35;;;;;;;8.27;58.58;98068.94;4093870;29;20242;-54
2022/04/21 00:59:54;;;;;;;1.42;1.33;;;;;;;8.25;58.46;98062.09;4114567;28;20203;-55
2022/04/21 01:04:18;;;;;;;1.52;1.42;;;;;;;8.16;58.75;98069.00;4085020;29;20235;-54
2022/04/21 01:06:19;;;;;;;1.23;1.23;;;;;;;8.10;58.76;98061.78;4104998;28;20298;-54
2022/04/21 01:08:21;;;;;;;1.83;1.30;;;;;;;8.06;58.81;98068.78;4116046;28;21687;-55
2022/04/21 01:10:24;;;;;;;1.67;1.58;;;;;;;8.04;58.90;98065.50;4088197;29;20246;-55
2022/04/21 01:12:27;;;;;;;1.30;1.20;;;;;;;8.02;58.76;98062.19;4088020;28;20207;-55
2022/04/21 01:14:29;;;;;;;1.33;1.23;;;;;;;8.03;58.91;98064.66;4118331;28;20257;-55
2022/04/21 01:16:31;;;;;;;1.67;1.40;;;;;;;8.03;59.48;98055.66;4102387;28;21411;-54
2022/04/21 01:18:33;;;;;;;1.25;1.20;;;;;;;7.99;59.40;98051.78;4094228;28;20302;-54
2022/04/21 01:20:35;;;;;;;1.40;1.30;;;;;;;7.94;59.13;98057.13;4089471;29;20219;-55
2022/04/21 01:22:37;;;;;;;1.65;1.55;;;;;;;7.98;59.52;98055.56;4091001;28;20211;-54
2022/04/21 01:24:39;;;;;;;1.23;1.20;;;;;;;7.98;59.65;98071.91;4119338;28;20215;-54
2022/04/21 01:26:40;;;;;;;1.30;1.30;;;;;;;7.85;60.11;98061.31;4079003;29;20767;-54
2022/04/21 01:28:44;;;;;;;1.67;1.58;;;;;;;7.85;60.44;98059.44;4095802;29;20226;-54
2022/04/21 01:30:48;;;;;;;1.30;1.20;;;;;;;7.89;60.05;98062.50;4120258;28;20206;-55
2022/04/21 01:32:51;;;;;;;1.50;1.40;;;;;;;7.87;60.14;98059.16;4087659;28;20212;-56
2022/04/21 01:34:53;;;;;;;1.63;1.30;;;;;;;7.92;59.86;98062.84;4119117;28;20638;-55
2022/04/21 01:41:35;;;;;;;1.52;1.42;;;;;;;7.85;59.75;98061.31;4089651;29;20221;-56
2022/04/21 01:43:38;;;;;;;1.17;1.17;;;;;;;7.81;60.39;98057.44;4094377;29;20207;-54
2022/04/21 01:45:41;;;;;;;1.00;0.90;;;;;;;7.82;60.25;98056.38;4095039;28;20219;-54
2022/04/21 01:47:43;;;;;;;1.20;1.10;;;;;;;7.76;59.73;98062.78;4103218;28;20322;-56
2022/04/21 01:49:45;;;;;;;1.20;1.13;;;;;;;7.70;60.10;98055.59;4103635;28;20643;-55
2022/04/21 01:51:46;;;;;;;1.20;1.10;;;;;;;7.68;60.01;98055.81;4094003;28;20242;-56
2022/04/21 01:53:48;;;;;;;2.47;1.45;;;;;;;7.69;60.15;98056.66;4120873;28;20210;-55
2022/04/21 01:55:51;;;;;;;1.65;1.55;;;;;;;7.66;60.17;98057.13;4072660;29;20252;-54
2022/04/21 01:57:53;;;;;;;1.63;1.52;;;;;;;7.66;60.27;98057.13;4119005;28;20198;-54
2022/04/21 01:59:55;;;;;;;1.52;1.50;;;;;;;7.68;60.17;98065.91;4087298;29;21002;-54
2022/04/21 02:01:56;;;;;;;1.58;1.30;;;;;;;7.64;60.24;98053.84;4088365;29;20211;-54
2022/04/21 02:03:58;;;;;;;1.27;1.17;;;;;;;7.61;60.53;98054.34;4094344;29;20200;-54
2022/04/21 02:06:00;;;;;;;1.83;1.67;;;;;;;7.58;60.26;98042.03;4078668;29;20966;-54
2022/04/21 02:08:03;;;;;;;1.77;1.67;;;;;;;7.57;60.40;98042.25;4100870;28;20576;-54
2022/04/21 02:10:05;;;;;;;1.17;1.17;;;;;;;7.51;60.37;98040.50;4087591;28;20231;-53
2022/04/21 02:12:08;;;;;;;1.25;1.25;;;;;;;7.50;60.60;98044.31;4119164;28;20203;-55
2022/04/21 02:14:09;;;;;;;1.10;1.10;;;;;;;7.47;61.00;98047.50;4095796;28;20208;-53
2022/04/21 02:16:11;;;;;;;1.38;1.38;;;;;;;7.45;61.17;98038.75;4118868;28;20648;-55
2022/04/21 02:18:13;;;;;;;1.90;1.80;;;;;;;7.43;60.84;98040.91;4088914;29;20760;-55
2022/04/21 02:20:18;;;;;;;2.28;2.17;;;;;;;7.44;60.78;98048.00;4088514;29;20740;-54
2022/04/21 02:22:20;;;;;;;1.25;1.25;;;;;;;7.37;61.34;98047.31;4101013;28;20211;-53
2022/04/21 02:24:22;;;;;;;1.80;1.70;;;;;;;7.36;61.40;98048.38;4087207;28;20586;-54
2022/04/21 02:26:23;;;;;;;1.25;1.15;;;;;;;7.32;61.55;98047.19;4088148;29;20217;-56
2022/04/21 02:28:25;;;;;;;1.40;1.30;;;;;;;7.31;61.02;98045.53;4104396;28;20253;-55
2022/04/21 02:30:27;;;;;;;1.38;1.38;;;;;;;7.34;61.70;98045.03;4091615;28;20278;-54
2022/04/21 02:32:28;;;;;;;1.45;1.38;;;;;;;7.29;61.69;98036.81;4093145;28;20687;-55
2022/04/21 02:34:30;;;;;;;1.50;1.40;;;;;;;7.26;61.17;98040.00;4088149;28;20684;-54
2022/04/21 02:36:32;;;;;;;1.63;1.52;;;;;;;7.25;61.87;98038.34;4102845;28;20207;-55
2022/04/21 02:38:34;;;;;;;1.73;1.63;;;;;;;7.23;61.36;98040.47;4118345;28;20226;-54
2022/04/21 02:40:38;;;;;;;1.65;1.55;;;;;;;7.18;61.34;98043.94;4087126;29;20227;-55
2022/04/21 02:42:40;;;;;;;1.27;1.25;;;;;;;7.14;61.64;98041.91;4089517;29;20199;-54
2022/04/21 02:44:42;;;;;;;1.80;1.70;;;;;;;7.10;61.30;98041.56;4088207;29;20234;-53
2022/04/21 02:46:44;;;;;;;1.90;1.80;;;;;;;7.07;61.71;98043.94;4119526;28;20207;-55
2022/04/21 02:48:45;;;;;;;1.63;1.45;;;;;;;6.99;61.47;98039.72;4102510;28;20661;-55
2022/04/21 02:50:49;;;;;;;1.23;1.23;;;;;;;6.99;62.11;98044.31;4091366;29;20685;-54
2022/04/21 02:52:51;;;;;;;1.38;1.17;;;;;;;6.94;61.99;98034.16;4088033;29;20267;-54
2022/04/21 02:57:23;;;;;;;1.73;1.52;;;;;;;6.85;62.41;98032.03;4086611;29;20207;-54
2022/04/21 02:59:25;;;;;;;1.25;1.25;;;;;;;6.83;61.85;98023.28;4102759;28;20308;-55
2022/04/21 03:01:27;;;;;;;1.30;1.20;;;;;;;6.85;62.19;98026.59;4087229;29;20207;-54
2022/04/21 03:03:29;;;;;;;1.20;1.15;;;;;;;6.83;62.50;98028.72;4102681;28;20265;-53
2022/04/21 03:05:30;;;;;;;1.40;1.30;;;;;;;6.80;62.03;98023.75;4102141;28;20288;-54
2022/04/21 03:07:32;;;;;;;2.08;1.98;;;;;;;6.79;62.22;98022.94;4102403;28;20284;-54
2022/04/21 03:09:34;;;;;;;1.20;1.15;;;;;;;6.81;62.38;98014.53;4103338;28;20203;-54
2022/04/21 03:11:36;;;;;;;1.48;1.38;;;;;;;6.80;61.97;98023.75;4117766;28;20252;-54
2022/04/21 03:13:37;;;;;;;1.52;1.42;;;;;;;6.77;61.84;98018.81;4086668;28;20249;-55
2022/04/21 03:15:39;;;;;;;2.10;1.50;;;;;;;6.70;62.11;98023.53;4093041;29;20254;-56
2022/04/21 03:17:41;;;;;;;1.65;1.55;;;;;;;6.65;62.11;98018.81;4092933;28;20323;-54
2022/04/21 03:19:46;;;;;;;3.38;1.65;;;;;;;6.64;62.09;98029.94;4103481;28;20224;-54
2022/04/21 03:24:20;;;;;;;1.70;1.60;;;;;;;6.51;62.39;98020.13;4086064;29;20212;-54
2022/04/21 03:26:21;;;;;;;2.25;2.05;;;;;;;6.52;61.93;98020.94;4088415;28;20289;-55
2022/04/21 03:28:23;;;;;;;1.30;1.30;;;;;;;6.46;62.35;98024.59;4085480;28;20211;-54
2022/04/21 03:30:25;;;;;;;1.20;1.13;;;;;;;6.41;62.55;98019.88;4089268;29;20803;-54
2022/04/21 03:32:27;;;;;;;2.03;1.63;;;;;;;6.40;62.55;98020.09;4086849;29;20687;-54
2022/04/21 03:34:28;;;;;;;1.55;1.42;;;;;;;6.37;62.96;98029.56;4088194;29;20222;-55
2022/04/21 03:36:31;;;;;;;1.25;1.20;;;;;;;6.39;62.81;98029.31;4101778;28;20960;-54
2022/04/21 03:38:32;;;;;;;1.33;1.23;;;;;;;6.39;63.15;98029.31;4100106;28;20247;-55
2022/04/21 03:40:34;;;;;;;1.52;1.52;;;;;;;6.38;63.14;98030.38;4092221;28;20311;-56
2022/04/21 03:42:36;;;;;;;1.60;1.40;;;;;;;6.36;63.11;98032.53;4084838;28;20730;-54
2022/04/21 03:44:40;;;;;;;1.60;1.50;;;;;;;6.31;63.21;98035.13;4101152;28;20202;-54
2022/04/21 03:46:42;;;;;;;1.27;1.27;;;;;;;6.29;63.39;98029.09;4118378;28;20313;-55
2022/04/21 03:48:43;;;;;;;1.17;1.17;;;;;;;6.24;63.43;98024.34;4099484;28;20821;-55
2022/04/21 03:50:45;;;;;;;1.30;1.20;;;;;;;6.22;63.13;98033.81;4089400;29;20201;-55
2022/04/21 03:52:47;;;;;;;1.50;1.40;;;;;;;6.21;63.06;98024.81;4098459;28;20207;-55
2022/04/21 03:54:48;;;;;;;1.00;1.00;;;;;;;6.24;63.39;98031.69;4087351;29;20231;-54
2022/04/21 03:56:50;;;;;;;1.90;1.80;;;;;;;6.21;63.09;98027.53;4099832;28;20249;-54
2022/04/21 03:58:52;;;;;;;1.73;1.63;;;;;;;6.19;63.26;98026.13;4092352;28;20208;-53
2022/04/21 04:00:54;;;;;;;1.58;1.42;;;;;;;6.18;63.74;98025.31;4101918;28;20211;-55
2022/04/21 04:02:56;;;;;;;1.80;1.30;;;;;;;6.16;63.79;98015.72;4092933;29;20294;-55
2022/04/21 04:05:00;;;;;;;1.17;1.10;;;;;;;6.17;63.79;98011.94;4087473;28;20228;-55
2022/04/21 04:11:44;;;;;;;1.67;1.58;;;;;;;6.17;63.63;98007.31;4087013;29;20578;-54
2022/04/21 04:13:45;;;;;;;1.60;1.50;;;;;;;6.15;63.96;98014.09;4100807;28;20204;-54
2022/04/21 04:15:49;;;;;;;1.80;1.70;;;;;;;6.12;63.36;98014.53;4092274;29;20222;-54
2022/04/21 04:17:50;;;;;;;1.77;1.67;;;;;;;6.06;63.86;98021.75;4118140;28;20206;-54
2022/04/21 04:19:52;;;;;;;2.00;1.90;;;;;;;6.05;64.06;98022.81;4100928;28;20616;-54
2022/04/21 04:21:54;;;;;;;2.03;1.92;;;;;;;6.00;63.50;98027.25;4116625;28;20202;-55
2022/04/21 04:23:57;;;;;;;2.13;2.03;;;;;;;5.92;63.90;98025.72;4088333;29;20255;-55
2022/04/21 04:25:59;;;;;;;2.53;1.80;;;;;;;5.96;64.47;98023.38;4118420;28;20728;-55
2022/04/21 04:28:03;;;;;;;1.85;1.75;;;;;;;5.97;64.10;98025.03;4091787;29;20250;-54
2022/04/21 04:30:07;;;;;;;1.30;1.27;;;;;;;5.96;64.01;98020.66;4100995;28;20203;-55
2022/04/21 04:32:09;;;;;;;1.77;1.60;;;;;;;5.97;63.91;98028.56;4117403;28;20210;-55
2022/04/21 04:34:10;;;;;;;2.05;1.95;;;;;;;5.98;64.05;98018.53;4088791;28;20294;-55
2022/04/21 04:36:15;;;;;;;1.88;1.77;;;;;;;5.94;63.85;98018.16;4085950;28;20232;-55
2022/04/21 04:38:17;;;;;;;2.33;2.13;;;;;;;5.95;64.08;98013.56;4101668;28;20215;-54
2022/04/21 04:40:19;;;;;;;1.85;1.73;;;;;;;5.91;64.29;98028.66;4116480;28;20669;-55
2022/04/21 04:42:22;;;;;;;1.77;1.67;;;;;;;5.92;64.12;98016.75;4087809;29;20215;-53
2022/04/21 04:44:25;;;;;;;1.83;1.73;;;;;;;5.92;64.44;98014.03;4100369;28;20736;-54
2022/04/21 04:46:36;;;;;;;1.45;1.35;;;;;;;5.93;64.20;98016.53;4088194;28;20212;-54
2022/04/21 04:48:37;;;;;;;2.33;2.22;;;;;;;5.91;64.66;98023.25;4092338;28;20203;-54
2022/04/21 04:50:40;;;;;;;1.90;1.80;;;;;;;5.90;65.27;98016.97;4087979;29;20677;-54
2022/04/21 04:52:43;;;;;;;2.58;2.30;;;;;;;5.92;64.64;98022.16;4116163;28;20202;-55
2022/04/21 04:54:44;;;;;;;1.75;1.65;;;;;;;5.94;64.72;98028.19;4087273;28;20652;-54
2022/04/21 04:56:47;;;;;;;1.73;1.63;;;;;;;5.88;65.11;98040.00;4103369;28;20208;-55
2022/04/21 04:58:49;;;;;;;1.83;1.73;;;;;;;5.92;65.12;98036.59;4119405;28;20206;-54
2022/04/21 05:00:51;;;;;;;1.85;1.75;;;;;;;5.89;65.06;98036.22;4094466;28;20215;-54
2022/04/21 05:02:53;;;;;;;2.13;2.00;;;;;;;5.91;64.89;98024.09;4089858;29;20398;-55
2022/04/21 05:04:55;;;;;;;2.35;1.90;;;;;;;5.94;65.44;98028.19;4092721;29;20246;-55
2022/04/21 05:06:57;;;;;;;3.28;2.55;;;;;;;5.95;65.18;98027.16;4105390;28;20609;-53
2022/04/21 05:08:59;;;;;;;2.38;2.28;;;;;;;5.94;64.84;98028.19;4092438;29;20246;-55
2022/04/21 05:11:01;;;;;;;2.20;2.10;;;;;;;5.93;64.86;98023.81;4090889;29;20235;-55
2022/04/21 05:13:02;;;;;;;2.00;1.80;;;;;;;5.97;64.91;98027.75;4089305;28;20220;-55
2022/04/21 05:15:06;;;;;;;2.38;2.22;;;;;;;6.03;64.73;98029.53;4089841;28;20234;-55
2022/04/21 05:17:08;;;;;;;3.80;1.95;;;;;;;6.09;64.61;98025.88;4103331;28;20836;-55
2022/04/21 05:19:11;;;;;;;1.98;1.85;;;;;;;6.15;64.70;98020.31;4090945;28;20287;-55
2022/04/21 05:21:13;;;;;;;1.77;1.67;;;;;;;6.16;64.19;98019.25;4103363;28;20210;-55
2022/04/21 05:23:17;;;;;;;1.98;1.52;;;;;;;6.24;64.25;98026.25;4102399;28;20207;-55
2022/04/21 05:25:18;;;;;;;1.55;1.45;;;;;;;6.26;64.48;98021.41;4102792;28;20267;-55
2022/04/21 05:27:20;;;;;;;4.35;1.90;;;;;;;6.33;64.25;98016.69;4089914;28;20203;-55
2022/04/21 05:31:42;;;;;;;2.25;2.03;;;;;;;6.50;64.76;98017.63;4090156;29;20273;-56
2022/04/21 05:33:45;;;;;;;2.03;1.80;;;;;;;6.59;64.81;98016.22;4089446;29;20690;-56
2022/04/21 05:35:46;;;;;;;2.17;2.05;;;;;;;6.68;64.85;98018.34;4091597;28;20220;-54
2022/04/21 05:37:48;;;;;;;4.38;2.45;;;;;;;6.79;64.54;98027.53;4090145;29;20212;-56
2022/04/21 05:39:50;;;;;;;3.05;2.75;;;;;;;6.87;65.69;98024.44;4104405;28;20239;-55
2022/04/21 05:41:53;;;;;;;2.10;1.90;;;;;;;6.92;66.15;98016.41;4090804;29;20306;-54
2022/04/21 05:43:55;;;;;;;2.08;1.88;;;;;;;6.97;65.50;98019.25;4101922;28;20230;-53
2022/04/21 05:45:58;;;;;;;2.45;2.35;;;;;;;7.07;64.78;98019.44;4101203;28;20231;-55
2022/04/21 05:48:01;;;;;;;2.22;1.80;;;;;;;7.01;65.43;98020.41;4100781;28;20267;-54
2022/04/21 05:50:04;;;;;;;2.70;2.50;;;;;;;7.17;65.83;98019.69;4096513;28;20248;-54
2022/04/21 05:52:07;;;;;;;2.83;2.47;;;;;;;7.25;65.05;98011.97;4103599;28;20234;-54
2022/04/21 05:54:09;;;;;;;2.17;2.08;;;;;;;7.23;65.21;98018.72;4090679;29;20215;-54
2022/04/21 05:56:11;;;;;;;4.43;2.60;;;;;;;7.36;65.13;98007.56;4103903;28;20236;-54
2022/04/21 05:58:13;;;;;;;2.08;1.98;;;;;;;7.50;65.70;98003.47;4101846;28;20241;-54
2022/04/21 06:00:15;;;;;;;2.55;2.35;;;;;;;7.65;65.89;98011.91;4104294;28;20748;-55
2022/04/21 06:02:17;;;;;;;2.60;2.38;;;;;;;7.99;65.61;98013.63;4104388;28;20254;-55
2022/04/21 06:04:22;;;;;;;2.67;2.47;;;;;;;8.22;65.52;98014.34;4103313;28;21073;-55
2022/04/21 06:06:24;;;;;;;3.05;2.10;;;;;;;8.31;63.89;98012.03;4087514;28;20208;-54
2022/04/21 06:08:25;;;;;;;1.80;1.70;;;;;;;8.57;63.69;98014.09;4088601;29;20234;-54
2022/04/21 06:10:27;;;;;;;2.63;2.42;;;;;;;8.88;63.40;98016.19;4088864;28;20208;-54
2022/04/21 06:12:29;;;;;;;2.47;2.28;;;;;;;8.93;62.35;98016.25;4087369;29;20301;-54
2022/04/21 06:14:31;;;;;;;1.88;1.77;;;;;;;8.82;61.95;98009.03;4087826;29;20748;-57
2022/04/21 06:16:33;;;;;;;2.33;2.22;;;;;;;8.99;62.12;98007.06;4077461;29;20208;-54
2022/04/21 06:18:36;;;;;;;2.05;1.95;;;;;;;9.18;61.22;98016.59;4090502;28;20278;-54
2022/04/21 06:20:38;;;;;;;2.17;2.08;;;;;;;9.19;62.18;98012.78;4101648;28;20317;-55
2022/04/21 06:22:40;;;;;;;2.30;2.17;;;;;;;9.35;61.44;98003.72;4100282;28;20211;-54
2022/04/21 06:24:42;;;;;;;2.20;2.10;;;;;;;9.68;60.75;98009.81;4103187;28;20239;-57
2022/04/21 06:26:43;;;;;;;2.92;2.72;;;;;;;9.58;60.24;98011.63;4084778;28;20220;-54
2022/04/21 06:28:47;;;;;;;2.47;2.28;;;;;;;9.68;60.74;98009.03;4084162;28;20212;-55
2022/04/21 06:30:49;;;;;;;2.47;2.28;;;;;;;8.96;61.71;98008.38;4086240;28;20211;-54
2022/04/21 06:32:51;;;;;;;2.08;1.98;;;;;;;9.00;61.37;98008.69;4088572;29;20286;-54
2022/04/21 06:34:54;;;;;;;3.20;2.92;;;;;;;9.22;61.18;98009.56;4101675;28;20223;-54
2022/04/21 06:36:56;;;;;;;6.88;2.75;;;;;;;9.29;61.08;98016.47;4103953;28;20203;-55
2022/04/21 06:38:58;;;;;;;2.60;2.50;;;;;;;9.34;60.72;98015.72;4086854;28;20226;-55
2022/04/21 06:41:01;;;;;;;2.60;2.35;;;;;;;9.57;60.88;98008.09;4090969;29;20274;-55
2022/04/21 06:48:01;;;;;;;4.25;2.42;;;;;;;9.62;60.46;98010.03;4094409;29;20207;-54
2022/04/21 06:50:06;;;;;;;1.65;1.55;;;;;;;9.92;59.74;98002.16;4090058;29;20716;-55
2022/04/21 06:52:08;;;;;;;2.92;2.05;;;;;;;9.83;58.92;98001.78;4119411;28;20257;-54
2022/04/21 06:54:09;;;;;;;3.00;2.75;;;;;;;9.98;58.77;97995.66;4093224;29;20270;-56
2022/04/21 06:56:12;;;;;;;2.55;2.35;;;;;;;10.33;59.02;97998.72;4109770;28;20271;-55
2022/04/21 06:58:14;;;;;;;2.20;2.10;;;;;;;10.38;58.81;97994.16;4089299;28;20219;-55
2022/04/21 07:00:16;;;;;;;2.78;2.58;;;;;;;10.59;58.25;98000.56;4088119;28;20238;-55
2022/04/21 07:02:27;;;;;;;2.60;2.22;;;;;;;10.65;57.49;97997.63;4095629;29;20230;-56
2022/04/21 07:04:29;;;;;;;3.38;2.30;;;;;;;10.85;57.13;97998.56;4104890;28;20546;-55
2022/04/21 07:06:30;;;;;;;1.88;1.77;;;;;;;10.78;57.63;97999.91;4089226;29;20216;-53
2022/04/21 07:08:34;;;;;;;2.45;2.30;;;;;;;10.97;57.62;97992.91;4088782;28;20701;-54
2022/04/21 07:10:36;;;;;;;2.75;2.55;;;;;;;10.93;56.54;97998.09;4090038;29;20574;-54
2022/04/21 07:12:38;;;;;;;2.45;2.35;;;;;;;10.99;56.19;97985.25;4109900;28;20207;-54
2022/04/21 07:14:41;;;;;;;2.40;2.22;;;;;;;11.33;55.52;97981.88;4087941;28;20641;-54
2022/04/21 07:16:43;;;;;;;2.40;2.22;;;;;;;11.40;55.26;97982.44;4093843;28;20230;-53
2022/04/21 07:18:45;;;;;;;2.58;2.38;;;;;;;11.70;55.22;97985.28;4106573;28;20207;-55
2022/04/21 07:20:47;;;;;;;2.80;2.60;;;;;;;11.69;54.70;97985.56;4090180;29;20242;-53
2022/04/21 07:22:49;;;;;;;2.00;1.90;;;;;;;11.62;55.47;97980.34;4087764;29;20215;-55
2022/04/21 07:24:54;;;;;;;2.00;1.73;;;;;;;11.88;53.96;97964.78;4118055;28;20227;-55
2022/04/21 07:26:59;;;;;;;2.75;2.40;;;;;;;11.86;53.74;97976.03;4088741;28;20212;-54
2022/04/21 07:29:01;;;;;;;2.70;2.47;;;;;;;11.68;53.90;97973.78;4119459;28;20206;-56
2022/04/21 07:31:02;;;;;;;2.20;2.10;;;;;;;12.00;54.71;97971.66;4086139;29;20223;-54
2022/04/21 07:33:05;;;;;;;1.88;1.77;;;;;;;12.34;54.71;97967.28;4101603;28;20859;-55
2022/04/21 07:35:07;;;;;;;2.38;2.17;;;;;;;12.22;54.04;97968.63;4089638;29;20283;-54
2022/04/21 07:37:13;;;;;;;1.90;1.73;;;;;;;12.33;53.54;97970.28;4094476;29;20251;-55
2022/04/21 07:39:15;;;;;;;3.00;2.13;;;;;;;12.02;53.76;97963.97;4088399;28;20229;-55
2022/04/21 07:41:18;;;;;;;2.15;2.00;;;;;;;12.21;52.75;97965.09;4087744;28;20240;-55
2022/04/21 07:43:21;;;;;;;2.15;2.00;;;;;;;12.31;52.67;97965.06;4102737;28;20657;-55
2022/04/21 07:45:23;;;;;;;1.98;1.88;;;;;;;12.54;53.27;97970.03;4086203;29;20262;-55
2022/04/21 07:47:25;;;;;;;3.55;2.53;;;;;;;12.45;52.19;97966.16;4100411;28;20210;-55
2022/04/21 07:49:45;;;;;;;1.50;1.40;;;;;;;12.50;52.74;97962.63;4091191;29;20686;-55
2022/04/21 07:51:47;;;;;;;2.55;1.85;;;;;;;12.46;52.75;97965.09;4102425;28;20250;-54
2022/04/21 07:53:49;;;;;;;2.53;1.88;;;;;;;12.58;52.63;97953.81;4100258;28;20613;-54
2022/04/21 07:55:52;;;;;;;1.88;1.63;;;;;;;12.47;52.71;97954.91;4074193;29;20231;-54
2022/04/21 07:57:56;;;;;;;2.00;1.80;;;;;;;12.35;53.54;97959.88;4089169;29;20662;-52
2022/04/21 07:59:57;;;;;;;2.50;2.30;;;;;;;12.39;53.18;97956.31;4089265;29;20641;-53
2022/04/21 08:01:59;;;;;;;2.28;1.80;;;;;;;12.50;53.64;97962.63;4086719;29;20212;-55
2022/04/21 08:04:05;;;;;;;1.85;1.73;;;;;;;12.94;52.31;97961.72;4101575;28;20207;-52
2022/04/21 08:06:07;;;;;;;1.98;1.88;;;;;;;12.57;52.89;97961.22;4103512;28;20249;-55
2022/04/21 08:08:11;;;;;;;2.83;2.63;;;;;;;13.03;52.59;97957.31;4103351;28;20644;-55
2022/04/21 08:10:14;;;;;;;1.90;1.80;;;;;;;13.14;52.40;97966.34;4118734;28;20198;-55
2022/04/21 08:12:16;;;;;;;2.17;2.03;;;;;;;13.27;52.58;97971.25;4087073;28;20215;-56
2022/04/21 08:14:18;;;;;;;4.03;1.98;;;;;;;13.48;51.64;97968.16;4089519;29;20215;-53
2022/04/21 08:16:20;;;;;;;1.85;1.75;;;;;;;13.83;51.21;97965.19;4087796;29;20242;-53
2022/04/21 08:18:22;;;;;;;2.25;1.75;;;;;;;14.12;50.48;97966.13;4107200;28;20211;-55
2022/04/21 08:20:25;;;;;;;2.03;1.92;;;;;;;14.00;50.54;97960.16;4087020;29;20266;-53
2022/04/21 08:22:28;;;;;;;1.80;1.70;;;;;;;14.24;49.51;97961.09;4084758;29;20690;-53
2022/04/21 08:34:28;;;;;;;2.85;2.65;;;;;;;14.44;49.26;97971.94;4089371;29;20744;-52
2022/04/21 08:36:30;;;;;;;2.17;1.90;;;;;;;14.25;49.41;97967.44;4095796;29;20686;-52
2022/04/21 08:38:33;;;;;;;2.00;1.83;;;;;;;14.39;49.49;97968.41;4088407;29;20745;-53
2022/04/21 08:40:50;;;;;;;2.50;2.30;;;;;;;14.42;48.92;97974.16;4094110;29;20219;-53
2022/04/21 08:42:54;;;;;;;2.65;2.45;;;;;;;14.01;49.29;97975.53;4088758;29;20236;-53
2022/04/21 08:44:58;;;;;;;2.33;2.13;;;;;;;14.11;49.02;97969.97;4092050;28;20282;-53
2022/04/21 08:47:02;;;;;;;2.63;2.45;;;;;;;13.84;49.81;97975.09;4089603;29;20669;-52
2022/04/21 08:49:05;;;;;;;1.85;1.75;;;;;;;14.07;49.80;97966.16;4091027;29;20255;-53
2022/04/21 08:51:08;;;;;;;2.15;1.80;;;;;;;13.85;49.58;97971.25;4090450;28;20207;-54
2022/04/21 08:53:13;;;;;;;2.30;1.75;;;;;;;14.19;47.57;97969.41;4121979;28;20264;-53
2022/04/21 08:55:15;;;;;;;1.38;1.27;;;;;;;14.35;47.84;97967.34;4118811;28;20230;-53
2022/04/21 08:57:17;;;;;;;1.60;1.50;;;;;;;14.48;48.64;97973.00;4090796;28;20216;-52
2022/04/21 08:59:20;;;;;;;1.63;1.52;;;;;;;15.20;48.36;97964.59;4094597;29;20211;-53
2022/04/21 09:01:23;;;;;;;1.38;1.27;;;;;;;15.13;47.52;97969.63;4104486;28;20318;-53
2022/04/21 09:03:25;;;;;;;1.52;1.40;;;;;;;14.83;47.13;97966.38;4120605;28;20224;-53
2022/04/21 09:05:27;;;;;;;2.75;2.13;;;;;;;14.76;47.43;97963.94;4088839;28;21140;-54
2022/04/21 09:07:29;;;;;;;3.63;1.70;;;;;;;14.85;47.33;97969.66;4087423;28;20212;-52
2022/04/21 09:09:32;;;;;;;3.53;2.00;;;;;;;15.33;47.14;97963.09;4090243;29;20282;-55
2022/04/21 09:11:45;;;;;;;1.80;1.52;;;;;;;15.87;46.60;97967.06;4119730;28;20672;-52
2022/04/21 09:13:46;;;;;;;1.33;1.30;;;;;;;16.16;44.52;97956.69;4103723;28;20717;-52
2022/04/21 09:16:01;;;;;;;1.70;1.60;;;;;;;15.31;46.10;97955.06;4088863;29;20809;-54
2022/04/21 09:18:09;;;;;;;1.20;1.10;;;;;;;15.63;46.47;97958.00;4087260;29;20235;-53
2022/04/21 09:20:13;;;;;;;1.48;1.38;;;;;;;16.20;46.28;97957.75;4090461;28;20299;-53
2022/04/21 09:22:19;;;;;;;1.50;1.40;;;;;;;15.78;47.08;97955.06;4092031;29;20212;-52
2022/04/21 09:24:22;;;;;;;2.70;2.03;;;;;;;16.34;46.49;97950.34;4090377;28;20586;-53
2022/04/21 09:26:24;;;;;;;1.83;1.73;;;;;;;16.26;45.68;97950.19;4104261;28;20680;-53
2022/04/21 09:28:29;;;;;;;5.43;1.33;;;;;;;16.34;45.37;97946.75;4107741;28;20210;-53
2022/04/21 09:30:32;;;;;;;1.60;1.50;;;;;;;15.53;46.58;97947.13;4123553;28;20206;-53
2022/04/21 09:32:34;;;;;;;2.60;2.40;;;;;;;14.88;47.36;97950.59;4088937;28;20208;-54
2022/04/21 09:34:36;;;;;;;1.33;1.23;;;;;;;15.48;46.56;97944.41;4095114;29;20206;-53
2022/04/21 09:36:39;;;;;;;1.50;1.40;;;;;;;14.95;47.11;97953.00;4118828;28;20206;-53
2022/04/21 09:38:41;;;;;;;1.40;1.30;;;;;;;15.07;48.00;97948.75;4082870;28;20220;-54
2022/04/21 09:40:44;;;;;;;1.27;1.10;;;;;;;15.28;47.63;97957.59;4091576;28;20270;-53
2022/04/21 09:43:13;;;;;;;1.80;1.50;;;;;;;15.34;47.44;97948.19;4121582;28;20245;-53
2022/04/21 09:47:35;;;;;;;1.30;1.20;;;;;;;15.28;47.49;97957.59;4090088;29;20258;-53
2022/04/21 09:49:43;;;;;;;1.67;1.58;;;;;;;14.24;48.14;97949.28;4108454;28;20207;-54
2022/04/21 09:51:45;;;;;;;1.40;1.30;;;;;;;14.45;48.58;97954.34;4087802;29;20200;-55
2022/04/21 09:53:59;;;;;;;2.10;1.80;;;;;;;14.74;47.24;97949.66;4119605;28;20218;-52
2022/04/21 09:56:08;;;;;;;1.73;1.48;;;;;;;14.76;46.51;97941.91;4092248;28;20342;-53
2022/04/21 09:58:10;;;;;;;1.30;1.25;;;;;;;14.90;47.69;97947.56;4120004;28;20210;-52
2022/04/21 10:00:14;;;;;;;1.50;1.40;;;;;;;15.22;46.87;97940.28;4120407;28;20206;-53
2022/04/21 10:02:16;;;;;;;1.40;1.30;;;;;;;15.40;45.80;97947.84;4091244;29;20254;-52
2022/04/21 10:04:19;;;;;;;1.40;1.30;;;;;;;16.29;45.79;97944.09;4089975;29;20793;-52
2022/04/21 10:06:22;;;;;;;1.65;1.55;;;;;;;16.02;44.63;97944.75;4103843;28;20283;-51
2022/04/21 10:08:24;;;;;;;1.60;1.40;;;;;;;15.88;44.71;97943.88;4092364;29;20211;-52
2022/04/21 10:10:28;;;;;;;1.23;1.13;;;;;;;16.48;45.83;97929.13;4104980;28;20257;-52
2022/04/21 10:12:29;;;;;;;8.75;1.83;;;;;;;16.02;45.17;97927.41;4088360;29;20196;-53
2022/04/21 10:14:31;;;;;;;1.40;1.30;;;;;;;16.46;45.25;97933.31;4092175;28;20209;-52
2022/04/21 10:16:33;;;;;;;1.50;1.40;;;;;;;16.42;45.51;97932.31;4086025;28;20239;-52
2022/04/21 10:18:35;;;;;;;2.33;1.67;;;;;;;16.60;43.89;97928.66;4087460;28;20278;-54
2022/04/21 10:20:37;;;;;;;3.50;1.60;;;;;;;16.75;43.57;97923.69;4086990;28;20942;-53